sensor_id;sensor_type;location;lat;lon;timestamp;P1;durP1;ratioP1;P2;durP2;ratioP2
42430;SDS011;71905;47.466;19.024;2024-03-02T00:02:00;42.53;;;25.73;;
42430;SDS011;71905;47.466;19.024;2024-03-02T00:04:32;41.92;;;26.30;;
42430;SDS011;71905;47.466;19.024;2024-03-02T00:07:00;35.15;;;24.02;;
42430;SDS011;71905;47.466;19.024;2024-03-02T00:09:30;36.08;;;24.38;;
42430;SDS011;71905;47.466;19.024;2024-03-02T00:11:59;34.20;;;24.42;;
42430;SDS011;71905;47.466;19.024;2024-03-02T00:14:28;38.38;;;24.83;;
42430;SDS011;71905;47.466;19.024;2024-03-02T00:16:57;39.08;;;26.40;;
42430;SDS011;71905;47.466;19.024;2024-03-02T00:19:25;41.22;;;26.92;;
42430;SDS011;71905;47.466;19.024;2024-03-02T00:21:53;38.35;;;25.83;;
42430;SDS011;71905;47.466;19.024;2024-03-02T00:24:24;40.05;;;25.77;;
42430;SDS011;71905;47.466;19.024;2024-03-02T00:27:03;39.85;;;26.02;;
42430;SDS011;71905;47.466;19.024;2024-03-02T00:29:34;37.38;;;24.92;;
42430;SDS011;71905;47.466;19.024;2024-03-02T00:32:03;38.50;;;26.00;;
42430;SDS011;71905;47.466;19.024;2024-03-02T00:34:35;36.65;;;25.35;;
42430;SDS011;71905;47.466;19.024;2024-03-02T00:37:03;40.47;;;25.92;;
42430;SDS011;71905;47.466;19.024;2024-03-02T00:39:33;37.50;;;25.00;;
42430;SDS011;71905;47.466;19.024;2024-03-02T00:42:01;37.22;;;24.65;;
42430;SDS011;71905;47.466;19.024;2024-03-02T00:44:29;36.35;;;24.40;;
42430;SDS011;71905;47.466;19.024;2024-03-02T00:47:02;37.20;;;24.75;;
42430;SDS011;71905;47.466;19.024;2024-03-02T00:49:30;40.03;;;26.33;;
42430;SDS011;71905;47.466;19.024;2024-03-02T00:51:58;40.40;;;25.88;;
42430;SDS011;71905;47.466;19.024;2024-03-02T00:54:26;40.15;;;25.33;;
42430;SDS011;71905;47.466;19.024;2024-03-02T00:56:57;41.78;;;25.35;;
42430;SDS011;71905;47.466;19.024;2024-03-02T00:59:25;37.28;;;25.83;;
42430;SDS011;71905;47.466;19.024;2024-03-02T01:01:53;38.78;;;23.95;;
42430;SDS011;71905;47.466;19.024;2024-03-02T01:04:21;37.83;;;24.48;;
42430;SDS011;71905;47.466;19.024;2024-03-02T01:06:49;38.58;;;24.17;;
42430;SDS011;71905;47.466;19.024;2024-03-02T01:09:17;41.53;;;25.95;;
42430;SDS011;71905;47.466;19.024;2024-03-02T01:11:45;37.58;;;24.23;;
42430;SDS011;71905;47.466;19.024;2024-03-02T01:14:15;36.47;;;24.67;;
42430;SDS011;71905;47.466;19.024;2024-03-02T01:16:43;38.03;;;25.40;;
42430;SDS011;71905;47.466;19.024;2024-03-02T01:19:11;36.95;;;23.17;;
42430;SDS011;71905;47.466;19.024;2024-03-02T01:21:39;32.92;;;22.67;;
42430;SDS011;71905;47.466;19.024;2024-03-02T01:24:07;34.97;;;23.27;;
42430;SDS011;71905;47.466;19.024;2024-03-02T01:26:35;37.75;;;24.50;;
42430;SDS011;71905;47.466;19.024;2024-03-02T01:29:03;39.25;;;25.05;;
42430;SDS011;71905;47.466;19.024;2024-03-02T01:31:33;38.72;;;24.02;;
42430;SDS011;71905;47.466;19.024;2024-03-02T01:34:01;39.22;;;25.58;;
42430;SDS011;71905;47.466;19.024;2024-03-02T01:36:29;37.67;;;24.30;;
42430;SDS011;71905;47.466;19.024;2024-03-02T01:38:57;37.33;;;25.02;;
42430;SDS011;71905;47.466;19.024;2024-03-02T01:41:25;34.17;;;23.13;;
42430;SDS011;71905;47.466;19.024;2024-03-02T01:43:53;34.05;;;23.75;;
42430;SDS011;71905;47.466;19.024;2024-03-02T01:46:21;38.95;;;25.15;;
42430;SDS011;71905;47.466;19.024;2024-03-02T01:48:50;37.45;;;24.52;;
42430;SDS011;71905;47.466;19.024;2024-03-02T01:51:18;32.38;;;22.50;;
42430;SDS011;71905;47.466;19.024;2024-03-02T01:53:46;37.45;;;24.40;;
42430;SDS011;71905;47.466;19.024;2024-03-02T01:56:15;35.15;;;23.00;;
42430;SDS011;71905;47.466;19.024;2024-03-02T01:58:43;38.85;;;24.23;;
42430;SDS011;71905;47.466;19.024;2024-03-02T02:01:11;33.70;;;22.90;;
42430;SDS011;71905;47.466;19.024;2024-03-02T02:03:39;35.00;;;23.33;;
42430;SDS011;71905;47.466;19.024;2024-03-02T02:06:09;36.05;;;22.80;;
42430;SDS011;71905;47.466;19.024;2024-03-02T02:08:37;35.95;;;22.95;;
42430;SDS011;71905;47.466;19.024;2024-03-02T02:11:05;35.42;;;23.15;;
42430;SDS011;71905;47.466;19.024;2024-03-02T02:13:34;35.67;;;22.92;;
42430;SDS011;71905;47.466;19.024;2024-03-02T02:16:05;35.80;;;22.95;;
42430;SDS011;71905;47.466;19.024;2024-03-02T02:18:34;35.47;;;23.42;;
42430;SDS011;71905;47.466;19.024;2024-03-02T02:21:02;36.83;;;23.15;;
42430;SDS011;71905;47.466;19.024;2024-03-02T02:23:32;39.00;;;23.83;;
42430;SDS011;71905;47.466;19.024;2024-03-02T02:26:00;38.35;;;24.17;;
42430;SDS011;71905;47.466;19.024;2024-03-02T02:28:29;35.95;;;23.63;;
42430;SDS011;71905;47.466;19.024;2024-03-02T02:30:57;34.40;;;23.30;;
42430;SDS011;71905;47.466;19.024;2024-03-02T02:33:27;33.78;;;22.70;;
42430;SDS011;71905;47.466;19.024;2024-03-02T02:35:55;36.55;;;24.10;;
42430;SDS011;71905;47.466;19.024;2024-03-02T02:38:23;33.50;;;21.95;;
42430;SDS011;71905;47.466;19.024;2024-03-02T02:40:52;33.45;;;21.45;;
42430;SDS011;71905;47.466;19.024;2024-03-02T02:43:20;33.33;;;22.90;;
42430;SDS011;71905;47.466;19.024;2024-03-02T02:45:48;39.65;;;24.20;;
42430;SDS011;71905;47.466;19.024;2024-03-02T02:48:16;37.78;;;24.05;;
42430;SDS011;71905;47.466;19.024;2024-03-02T02:50:44;35.95;;;22.90;;
42430;SDS011;71905;47.466;19.024;2024-03-02T02:53:12;37.00;;;23.45;;
42430;SDS011;71905;47.466;19.024;2024-03-02T02:55:40;33.40;;;22.08;;
42430;SDS011;71905;47.466;19.024;2024-03-02T02:58:11;31.95;;;21.35;;
42430;SDS011;71905;47.466;19.024;2024-03-02T03:00:39;33.72;;;22.73;;
42430;SDS011;71905;47.466;19.024;2024-03-02T03:03:08;34.05;;;23.85;;
42430;SDS011;71905;47.466;19.024;2024-03-02T03:05:36;35.03;;;22.20;;
42430;SDS011;71905;47.466;19.024;2024-03-02T03:08:04;34.20;;;21.73;;
42430;SDS011;71905;47.466;19.024;2024-03-02T03:10:32;35.50;;;22.30;;
42430;SDS011;71905;47.466;19.024;2024-03-02T03:13:00;35.90;;;22.88;;
42430;SDS011;71905;47.466;19.024;2024-03-02T03:15:29;38.80;;;23.38;;
42430;SDS011;71905;47.466;19.024;2024-03-02T03:17:57;36.40;;;23.30;;
42430;SDS011;71905;47.466;19.024;2024-03-02T03:20:25;36.83;;;22.33;;
42430;SDS011;71905;47.466;19.024;2024-03-02T03:22:53;38.92;;;24.65;;
42430;SDS011;71905;47.466;19.024;2024-03-02T03:25:21;32.25;;;21.70;;
42430;SDS011;71905;47.466;19.024;2024-03-02T03:27:49;34.83;;;22.92;;
42430;SDS011;71905;47.466;19.024;2024-03-02T03:30:19;31.05;;;20.67;;
42430;SDS011;71905;47.466;19.024;2024-03-02T03:32:48;34.90;;;23.95;;
42430;SDS011;71905;47.466;19.024;2024-03-02T03:35:16;34.15;;;23.15;;
42430;SDS011;71905;47.466;19.024;2024-03-02T03:37:45;39.53;;;24.40;;
42430;SDS011;71905;47.466;19.024;2024-03-02T03:40:13;34.30;;;21.67;;
42430;SDS011;71905;47.466;19.024;2024-03-02T03:42:41;33.25;;;21.88;;
42430;SDS011;71905;47.466;19.024;2024-03-02T03:45:09;37.10;;;23.90;;
42430;SDS011;71905;47.466;19.024;2024-03-02T03:47:37;33.63;;;22.95;;
42430;SDS011;71905;47.466;19.024;2024-03-02T03:50:07;35.33;;;22.20;;
42430;SDS011;71905;47.466;19.024;2024-03-02T03:52:35;36.22;;;22.10;;
42430;SDS011;71905;47.466;19.024;2024-03-02T03:55:04;34.10;;;23.27;;
42430;SDS011;71905;47.466;19.024;2024-03-02T03:57:32;34.28;;;21.55;;
42430;SDS011;71905;47.466;19.024;2024-03-02T04:00:01;35.53;;;23.02;;
42430;SDS011;71905;47.466;19.024;2024-03-02T04:02:37;39.08;;;23.80;;
42430;SDS011;71905;47.466;19.024;2024-03-02T04:05:07;38.00;;;24.80;;
42430;SDS011;71905;47.466;19.024;2024-03-02T04:07:38;35.88;;;23.40;;
42430;SDS011;71905;47.466;19.024;2024-03-02T04:10:07;35.10;;;22.55;;
42430;SDS011;71905;47.466;19.024;2024-03-02T04:12:36;36.05;;;23.83;;
42430;SDS011;71905;47.466;19.024;2024-03-02T04:15:05;40.20;;;25.10;;
42430;SDS011;71905;47.466;19.024;2024-03-02T04:17:33;36.30;;;23.92;;
42430;SDS011;71905;47.466;19.024;2024-03-02T04:20:02;37.38;;;24.58;;
42430;SDS011;71905;47.466;19.024;2024-03-02T04:22:34;37.60;;;25.02;;
42430;SDS011;71905;47.466;19.024;2024-03-02T04:25:02;38.50;;;24.05;;
42430;SDS011;71905;47.466;19.024;2024-03-02T04:27:32;38.15;;;24.65;;
42430;SDS011;71905;47.466;19.024;2024-03-02T04:30:00;36.67;;;24.80;;
42430;SDS011;71905;47.466;19.024;2024-03-02T04:32:28;37.53;;;25.10;;
42430;SDS011;71905;47.466;19.024;2024-03-02T04:34:56;40.10;;;26.80;;
42430;SDS011;71905;47.466;19.024;2024-03-02T04:37:25;43.15;;;26.67;;
42430;SDS011;71905;47.466;19.024;2024-03-02T04:39:54;37.20;;;25.48;;
42430;SDS011;71905;47.466;19.024;2024-03-02T04:42:22;38.72;;;25.58;;
42430;SDS011;71905;47.466;19.024;2024-03-02T04:44:52;37.55;;;25.10;;
42430;SDS011;71905;47.466;19.024;2024-03-02T04:47:20;44.55;;;27.00;;
42430;SDS011;71905;47.466;19.024;2024-03-02T04:49:49;39.58;;;25.77;;
42430;SDS011;71905;47.466;19.024;2024-03-02T04:52:17;40.75;;;26.92;;
42430;SDS011;71905;47.466;19.024;2024-03-02T04:54:45;40.15;;;26.27;;
42430;SDS011;71905;47.466;19.024;2024-03-02T04:57:32;41.03;;;26.73;;
42430;SDS011;71905;47.466;19.024;2024-03-02T05:00:00;39.63;;;26.98;;
42430;SDS011;71905;47.466;19.024;2024-03-02T05:02:28;40.28;;;26.45;;
42430;SDS011;71905;47.466;19.024;2024-03-02T05:04:56;45.17;;;28.98;;
42430;SDS011;71905;47.466;19.024;2024-03-02T05:07:24;44.58;;;28.85;;
42430;SDS011;71905;47.466;19.024;2024-03-02T05:09:52;44.20;;;27.45;;
42430;SDS011;71905;47.466;19.024;2024-03-02T05:12:20;38.85;;;26.30;;
42430;SDS011;71905;47.466;19.024;2024-03-02T05:15:15;45.83;;;28.90;;
42430;SDS011;71905;47.466;19.024;2024-03-02T05:17:43;45.28;;;28.92;;
42430;SDS011;71905;47.466;19.024;2024-03-02T05:20:11;39.85;;;25.42;;
42430;SDS011;71905;47.466;19.024;2024-03-02T05:22:39;42.75;;;28.77;;
42430;SDS011;71905;47.466;19.024;2024-03-02T05:25:07;45.42;;;29.00;;
42430;SDS011;71905;47.466;19.024;2024-03-02T05:27:37;47.20;;;30.55;;
42430;SDS011;71905;47.466;19.024;2024-03-02T05:30:06;48.80;;;30.65;;
42430;SDS011;71905;47.466;19.024;2024-03-02T05:32:36;43.72;;;29.00;;
42430;SDS011;71905;47.466;19.024;2024-03-02T05:35:05;45.63;;;29.42;;
42430;SDS011;71905;47.466;19.024;2024-03-02T05:37:34;45.28;;;29.77;;
42430;SDS011;71905;47.466;19.024;2024-03-02T05:40:02;45.05;;;29.65;;
42430;SDS011;71905;47.466;19.024;2024-03-02T05:42:32;46.63;;;31.40;;
42430;SDS011;71905;47.466;19.024;2024-03-02T05:45:00;46.47;;;30.83;;
42430;SDS011;71905;47.466;19.024;2024-03-02T05:47:28;45.78;;;29.95;;
42430;SDS011;71905;47.466;19.024;2024-03-02T05:49:58;50.58;;;30.85;;
42430;SDS011;71905;47.466;19.024;2024-03-02T05:52:26;44.13;;;28.90;;
42430;SDS011;71905;47.466;19.024;2024-03-02T05:54:55;44.15;;;30.08;;
42430;SDS011;71905;47.466;19.024;2024-03-02T05:57:23;45.63;;;29.58;;
42430;SDS011;71905;47.466;19.024;2024-03-02T06:00:12;48.53;;;31.67;;
42430;SDS011;71905;47.466;19.024;2024-03-02T06:02:43;47.78;;;29.55;;
42430;SDS011;71905;47.466;19.024;2024-03-02T06:05:13;44.85;;;28.52;;
42430;SDS011;71905;47.466;19.024;2024-03-02T06:07:41;51.00;;;32.42;;
42430;SDS011;71905;47.466;19.024;2024-03-02T06:10:10;46.38;;;30.10;;
42430;SDS011;71905;47.466;19.024;2024-03-02T06:12:40;45.30;;;29.48;;
42430;SDS011;71905;47.466;19.024;2024-03-02T06:15:08;50.70;;;31.88;;
42430;SDS011;71905;47.466;19.024;2024-03-02T06:17:36;47.30;;;30.40;;
42430;SDS011;71905;47.466;19.024;2024-03-02T06:20:05;49.42;;;31.75;;
42430;SDS011;71905;47.466;19.024;2024-03-02T06:22:36;44.75;;;29.63;;
42430;SDS011;71905;47.466;19.024;2024-03-02T06:25:04;45.28;;;29.90;;
42430;SDS011;71905;47.466;19.024;2024-03-02T06:27:33;48.33;;;31.88;;
42430;SDS011;71905;47.466;19.024;2024-03-02T06:30:01;48.03;;;32.15;;
42430;SDS011;71905;47.466;19.024;2024-03-02T06:32:30;57.40;;;33.33;;
42430;SDS011;71905;47.466;19.024;2024-03-02T06:34:58;51.33;;;34.03;;
42430;SDS011;71905;47.466;19.024;2024-03-02T06:37:27;59.75;;;37.58;;
42430;SDS011;71905;47.466;19.024;2024-03-02T06:39:56;49.10;;;30.98;;
42430;SDS011;71905;47.466;19.024;2024-03-02T06:42:24;47.53;;;31.77;;
42430;SDS011;71905;47.466;19.024;2024-03-02T06:44:52;49.67;;;31.50;;
42430;SDS011;71905;47.466;19.024;2024-03-02T06:47:20;52.35;;;33.60;;
42430;SDS011;71905;47.466;19.024;2024-03-02T06:49:48;48.17;;;31.90;;
42430;SDS011;71905;47.466;19.024;2024-03-02T06:52:17;50.40;;;32.03;;
42430;SDS011;71905;47.466;19.024;2024-03-02T06:54:49;53.28;;;33.30;;
42430;SDS011;71905;47.466;19.024;2024-03-02T06:57:19;44.00;;;31.10;;
42430;SDS011;71905;47.466;19.024;2024-03-02T06:59:47;51.00;;;33.20;;
42430;SDS011;71905;47.466;19.024;2024-03-02T07:02:17;51.25;;;32.03;;
42430;SDS011;71905;47.466;19.024;2024-03-02T07:04:45;45.30;;;30.52;;
42430;SDS011;71905;47.466;19.024;2024-03-02T07:07:13;48.08;;;31.30;;
42430;SDS011;71905;47.466;19.024;2024-03-02T07:09:41;45.97;;;30.80;;
42430;SDS011;71905;47.466;19.024;2024-03-02T07:12:09;41.03;;;27.42;;
42430;SDS011;71905;47.466;19.024;2024-03-02T07:14:39;49.25;;;31.90;;
42430;SDS011;71905;47.466;19.024;2024-03-02T07:17:38;42.10;;;29.67;;
42430;SDS011;71905;47.466;19.024;2024-03-02T07:20:06;43.63;;;28.90;;
42430;SDS011;71905;47.466;19.024;2024-03-02T07:22:34;46.25;;;30.58;;
42430;SDS011;71905;47.466;19.024;2024-03-02T07:25:07;47.35;;;32.20;;
42430;SDS011;71905;47.466;19.024;2024-03-02T07:27:55;47.53;;;31.63;;
42430;SDS011;71905;47.466;19.024;2024-03-02T07:30:25;48.17;;;32.63;;
42430;SDS011;71905;47.466;19.024;2024-03-02T07:32:54;43.85;;;31.25;;
42430;SDS011;71905;47.466;19.024;2024-03-02T07:35:22;47.40;;;31.17;;
42430;SDS011;71905;47.466;19.024;2024-03-02T07:37:53;44.50;;;30.63;;
42430;SDS011;71905;47.466;19.024;2024-03-02T07:40:22;47.10;;;31.15;;
42430;SDS011;71905;47.466;19.024;2024-03-02T07:42:50;47.28;;;31.98;;
42430;SDS011;71905;47.466;19.024;2024-03-02T07:45:18;49.63;;;31.98;;
42430;SDS011;71905;47.466;19.024;2024-03-02T07:47:47;53.22;;;32.35;;
42430;SDS011;71905;47.466;19.024;2024-03-02T07:50:16;50.38;;;32.28;;
42430;SDS011;71905;47.466;19.024;2024-03-02T07:52:44;51.28;;;33.63;;
42430;SDS011;71905;47.466;19.024;2024-03-02T07:55:12;48.78;;;32.53;;
42430;SDS011;71905;47.466;19.024;2024-03-02T07:57:40;47.70;;;32.35;;
42430;SDS011;71905;47.466;19.024;2024-03-02T08:00:09;50.70;;;32.72;;
42430;SDS011;71905;47.466;19.024;2024-03-02T08:02:38;41.67;;;29.88;;
42430;SDS011;71905;47.466;19.024;2024-03-02T08:05:10;46.75;;;31.40;;
42430;SDS011;71905;47.466;19.024;2024-03-02T08:07:38;44.08;;;30.45;;
42430;SDS011;71905;47.466;19.024;2024-03-02T08:10:06;49.72;;;32.85;;
42430;SDS011;71905;47.466;19.024;2024-03-02T08:12:35;46.90;;;30.50;;
42430;SDS011;71905;47.466;19.024;2024-03-02T08:15:03;43.08;;;30.15;;
42430;SDS011;71905;47.466;19.024;2024-03-02T08:17:31;45.25;;;30.63;;
42430;SDS011;71905;47.466;19.024;2024-03-02T08:20:03;46.20;;;31.50;;
42430;SDS011;71905;47.466;19.024;2024-03-02T08:22:34;46.58;;;31.85;;
42430;SDS011;71905;47.466;19.024;2024-03-02T08:25:02;47.75;;;32.08;;
42430;SDS011;71905;47.466;19.024;2024-03-02T08:27:31;45.88;;;30.70;;
42430;SDS011;71905;47.466;19.024;2024-03-02T08:30:00;46.13;;;31.85;;
42430;SDS011;71905;47.466;19.024;2024-03-02T08:32:30;43.55;;;30.88;;
42430;SDS011;71905;47.466;19.024;2024-03-02T08:34:58;44.45;;;31.10;;
42430;SDS011;71905;47.466;19.024;2024-03-02T08:37:26;47.25;;;31.83;;
42430;SDS011;71905;47.466;19.024;2024-03-02T08:39:55;45.38;;;29.88;;
42430;SDS011;71905;47.466;19.024;2024-03-02T08:42:23;46.08;;;29.98;;
42430;SDS011;71905;47.466;19.024;2024-03-02T08:44:52;46.63;;;31.92;;
42430;SDS011;71905;47.466;19.024;2024-03-02T08:47:20;45.45;;;30.77;;
42430;SDS011;71905;47.466;19.024;2024-03-02T08:49:48;45.58;;;32.80;;
42430;SDS011;71905;47.466;19.024;2024-03-02T08:52:16;44.45;;;31.02;;
42430;SDS011;71905;47.466;19.024;2024-03-02T08:54:44;48.60;;;30.70;;
42430;SDS011;71905;47.466;19.024;2024-03-02T08:57:13;41.30;;;28.95;;
42430;SDS011;71905;47.466;19.024;2024-03-02T08:59:41;47.30;;;31.08;;
42430;SDS011;71905;47.466;19.024;2024-03-02T09:02:10;38.90;;;27.95;;
42430;SDS011;71905;47.466;19.024;2024-03-02T09:04:38;43.65;;;30.77;;
42430;SDS011;71905;47.466;19.024;2024-03-02T09:07:06;41.63;;;29.40;;
42430;SDS011;71905;47.466;19.024;2024-03-02T09:09:34;42.58;;;30.35;;
42430;SDS011;71905;47.466;19.024;2024-03-02T09:12:02;40.88;;;29.38;;
42430;SDS011;71905;47.466;19.024;2024-03-02T09:14:32;44.30;;;30.10;;
42430;SDS011;71905;47.466;19.024;2024-03-02T09:17:00;41.55;;;28.23;;
42430;SDS011;71905;47.466;19.024;2024-03-02T09:19:28;43.08;;;29.80;;
42430;SDS011;71905;47.466;19.024;2024-03-02T09:21:56;39.08;;;28.48;;
42430;SDS011;71905;47.466;19.024;2024-03-02T09:24:25;39.17;;;28.20;;
42430;SDS011;71905;47.466;19.024;2024-03-02T09:26:53;38.42;;;28.10;;
42430;SDS011;71905;47.466;19.024;2024-03-02T09:29:21;39.35;;;28.25;;
42430;SDS011;71905;47.466;19.024;2024-03-02T09:31:50;37.15;;;27.30;;
42430;SDS011;71905;47.466;19.024;2024-03-02T09:34:18;39.92;;;28.65;;
42430;SDS011;71905;47.466;19.024;2024-03-02T09:36:46;39.78;;;28.35;;
42430;SDS011;71905;47.466;19.024;2024-03-02T09:39:14;37.55;;;27.15;;
42430;SDS011;71905;47.466;19.024;2024-03-02T09:41:44;35.13;;;25.48;;
42430;SDS011;71905;47.466;19.024;2024-03-02T09:44:12;35.22;;;25.80;;
42430;SDS011;71905;47.466;19.024;2024-03-02T09:46:40;35.72;;;26.55;;
42430;SDS011;71905;47.466;19.024;2024-03-02T09:49:12;36.20;;;26.45;;
42430;SDS011;71905;47.466;19.024;2024-03-02T09:51:40;35.88;;;26.00;;
42430;SDS011;71905;47.466;19.024;2024-03-02T09:54:12;34.35;;;25.02;;
42430;SDS011;71905;47.466;19.024;2024-03-02T09:56:48;33.08;;;24.45;;
42430;SDS011;71905;47.466;19.024;2024-03-02T09:59:17;32.33;;;23.83;;
42430;SDS011;71905;47.466;19.024;2024-03-02T10:01:56;35.72;;;24.90;;
42430;SDS011;71905;47.466;19.024;2024-03-02T10:04:28;33.08;;;24.92;;
42430;SDS011;71905;47.466;19.024;2024-03-02T10:07:13;32.05;;;24.25;;
42430;SDS011;71905;47.466;19.024;2024-03-02T10:09:42;34.80;;;25.23;;
42430;SDS011;71905;47.466;19.024;2024-03-02T10:12:12;29.38;;;22.73;;
42430;SDS011;71905;47.466;19.024;2024-03-02T10:14:42;28.45;;;21.48;;
42430;SDS011;71905;47.466;19.024;2024-03-02T10:17:11;28.38;;;21.35;;
42430;SDS011;71905;47.466;19.024;2024-03-02T10:19:41;34.65;;;26.23;;
42430;SDS011;71905;47.466;19.024;2024-03-02T10:22:09;32.55;;;24.58;;
42430;SDS011;71905;47.466;19.024;2024-03-02T10:24:38;32.08;;;22.90;;
42430;SDS011;71905;47.466;19.024;2024-03-02T10:27:08;32.42;;;23.13;;
42430;SDS011;71905;47.466;19.024;2024-03-02T10:29:38;29.67;;;23.58;;
42430;SDS011;71905;47.466;19.024;2024-03-02T10:32:10;29.60;;;22.83;;
42430;SDS011;71905;47.466;19.024;2024-03-02T10:34:41;28.52;;;22.08;;
42430;SDS011;71905;47.466;19.024;2024-03-02T10:37:10;30.23;;;22.48;;
42430;SDS011;71905;47.466;19.024;2024-03-02T10:39:39;29.27;;;22.92;;
42430;SDS011;71905;47.466;19.024;2024-03-02T10:42:08;30.83;;;22.45;;
42430;SDS011;71905;47.466;19.024;2024-03-02T10:44:36;29.88;;;22.23;;
42430;SDS011;71905;47.466;19.024;2024-03-02T10:47:04;29.27;;;22.10;;
42430;SDS011;71905;47.466;19.024;2024-03-02T10:49:33;26.58;;;21.50;;
42430;SDS011;71905;47.466;19.024;2024-03-02T10:52:02;37.78;;;26.20;;
42430;SDS011;71905;47.466;19.024;2024-03-02T10:54:31;32.28;;;22.33;;
42430;SDS011;71905;47.466;19.024;2024-03-02T10:57:04;27.52;;;21.30;;
42430;SDS011;71905;47.466;19.024;2024-03-02T10:59:36;30.67;;;22.88;;
42430;SDS011;71905;47.466;19.024;2024-03-02T11:02:11;28.15;;;21.38;;
42430;SDS011;71905;47.466;19.024;2024-03-02T11:04:41;28.25;;;21.85;;
42430;SDS011;71905;47.466;19.024;2024-03-02T11:07:11;25.92;;;20.65;;
42430;SDS011;71905;47.466;19.024;2024-03-02T11:09:41;29.75;;;21.30;;
42430;SDS011;71905;47.466;19.024;2024-03-02T11:12:13;30.33;;;22.60;;
42430;SDS011;71905;47.466;19.024;2024-03-02T11:14:46;27.23;;;20.67;;
42430;SDS011;71905;47.466;19.024;2024-03-02T11:17:14;27.17;;;20.10;;
42430;SDS011;71905;47.466;19.024;2024-03-02T11:19:44;23.38;;;18.48;;
42430;SDS011;71905;47.466;19.024;2024-03-02T11:22:14;24.95;;;18.63;;
42430;SDS011;71905;47.466;19.024;2024-03-02T11:24:47;22.50;;;18.50;;
42430;SDS011;71905;47.466;19.024;2024-03-02T11:27:58;23.85;;;19.05;;
42430;SDS011;71905;47.466;19.024;2024-03-02T11:33:22;21.83;;;17.40;;
42430;SDS011;71905;47.466;19.024;2024-03-02T11:35:54;21.48;;;17.27;;
42430;SDS011;71905;47.466;19.024;2024-03-02T11:38:28;23.85;;;18.52;;
42430;SDS011;71905;47.466;19.024;2024-03-02T11:40:59;25.50;;;19.20;;
42430;SDS011;71905;47.466;19.024;2024-03-02T11:43:28;21.90;;;17.35;;
42430;SDS011;71905;47.466;19.024;2024-03-02T11:45:57;24.40;;;18.58;;
42430;SDS011;71905;47.466;19.024;2024-03-02T11:48:26;21.88;;;17.50;;
42430;SDS011;71905;47.466;19.024;2024-03-02T11:50:54;19.52;;;15.82;;
42430;SDS011;71905;47.466;19.024;2024-03-02T11:53:26;19.10;;;15.18;;
42430;SDS011;71905;47.466;19.024;2024-03-02T11:55:59;21.83;;;15.57;;
42430;SDS011;71905;47.466;19.024;2024-03-02T11:58:29;19.35;;;14.82;;
42430;SDS011;71905;47.466;19.024;2024-03-02T12:00:57;17.42;;;14.10;;
42430;SDS011;71905;47.466;19.024;2024-03-02T12:03:26;18.00;;;14.32;;
42430;SDS011;71905;47.466;19.024;2024-03-02T12:05:54;19.42;;;15.18;;
42430;SDS011;71905;47.466;19.024;2024-03-02T12:08:23;16.88;;;14.38;;
42430;SDS011;71905;47.466;19.024;2024-03-02T12:10:57;19.23;;;14.32;;
42430;SDS011;71905;47.466;19.024;2024-03-02T12:13:28;16.50;;;13.77;;
42430;SDS011;71905;47.466;19.024;2024-03-02T12:15:56;17.52;;;14.48;;
42430;SDS011;71905;47.466;19.024;2024-03-02T12:18:25;17.15;;;14.25;;
42430;SDS011;71905;47.466;19.024;2024-03-02T12:20:53;311.42;;;24.98;;
42430;SDS011;71905;47.466;19.024;2024-03-02T12:23:24;19.67;;;15.02;;
42430;SDS011;71905;47.466;19.024;2024-03-02T12:25:52;17.30;;;13.13;;
42430;SDS011;71905;47.466;19.024;2024-03-02T12:28:21;19.70;;;15.15;;
42430;SDS011;71905;47.466;19.024;2024-03-02T12:30:50;18.17;;;14.82;;
42430;SDS011;71905;47.466;19.024;2024-03-02T12:33:19;17.48;;;14.98;;
42430;SDS011;71905;47.466;19.024;2024-03-02T12:35:48;19.58;;;14.68;;
42430;SDS011;71905;47.466;19.024;2024-03-02T12:38:17;18.88;;;15.20;;
42430;SDS011;71905;47.466;19.024;2024-03-02T12:40:47;17.52;;;14.63;;
42430;SDS011;71905;47.466;19.024;2024-03-02T12:43:16;18.55;;;14.27;;
42430;SDS011;71905;47.466;19.024;2024-03-02T12:45:44;20.75;;;16.88;;
42430;SDS011;71905;47.466;19.024;2024-03-02T12:48:14;20.20;;;15.23;;
42430;SDS011;71905;47.466;19.024;2024-03-02T12:50:42;18.55;;;15.52;;
42430;SDS011;71905;47.466;19.024;2024-03-02T12:53:13;20.35;;;16.40;;
42430;SDS011;71905;47.466;19.024;2024-03-02T12:55:42;18.50;;;15.15;;
42430;SDS011;71905;47.466;19.024;2024-03-02T12:58:16;20.60;;;16.10;;
42430;SDS011;71905;47.466;19.024;2024-03-02T13:00:44;20.52;;;17.27;;
42430;SDS011;71905;47.466;19.024;2024-03-02T13:03:14;21.88;;;17.45;;
42430;SDS011;71905;47.466;19.024;2024-03-02T13:05:48;21.02;;;16.15;;
42430;SDS011;71905;47.466;19.024;2024-03-02T13:08:16;19.00;;;15.65;;
42430;SDS011;71905;47.466;19.024;2024-03-02T13:10:45;22.02;;;17.35;;
42430;SDS011;71905;47.466;19.024;2024-03-02T13:13:13;22.27;;;16.65;;
42430;SDS011;71905;47.466;19.024;2024-03-02T13:15:41;23.45;;;18.05;;
42430;SDS011;71905;47.466;19.024;2024-03-02T13:18:10;22.23;;;17.05;;
42430;SDS011;71905;47.466;19.024;2024-03-02T13:20:40;21.60;;;17.58;;
42430;SDS011;71905;47.466;19.024;2024-03-02T13:23:08;22.77;;;17.27;;
42430;SDS011;71905;47.466;19.024;2024-03-02T13:25:37;23.48;;;18.17;;
42430;SDS011;71905;47.466;19.024;2024-03-02T13:28:05;21.95;;;16.90;;
42430;SDS011;71905;47.466;19.024;2024-03-02T13:30:35;22.20;;;17.25;;
42430;SDS011;71905;47.466;19.024;2024-03-02T13:33:03;23.65;;;16.73;;
42430;SDS011;71905;47.466;19.024;2024-03-02T13:35:32;23.02;;;17.00;;
42430;SDS011;71905;47.466;19.024;2024-03-02T13:38:01;24.45;;;16.85;;
42430;SDS011;71905;47.466;19.024;2024-03-02T13:40:29;21.58;;;15.93;;
42430;SDS011;71905;47.466;19.024;2024-03-02T13:43:01;23.80;;;15.65;;
42430;SDS011;71905;47.466;19.024;2024-03-02T13:45:33;22.20;;;14.65;;
42430;SDS011;71905;47.466;19.024;2024-03-02T13:48:01;25.63;;;15.95;;
42430;SDS011;71905;47.466;19.024;2024-03-02T13:50:30;25.13;;;15.32;;
42430;SDS011;71905;47.466;19.024;2024-03-02T13:52:58;25.80;;;17.52;;
42430;SDS011;71905;47.466;19.024;2024-03-02T13:55:29;24.42;;;15.32;;
42430;SDS011;71905;47.466;19.024;2024-03-02T13:57:58;26.20;;;16.35;;
42430;SDS011;71905;47.466;19.024;2024-03-02T14:00:26;26.00;;;16.95;;
42430;SDS011;71905;47.466;19.024;2024-03-02T14:02:55;30.42;;;17.00;;
42430;SDS011;71905;47.466;19.024;2024-03-02T14:05:23;26.88;;;16.33;;
42430;SDS011;71905;47.466;19.024;2024-03-02T14:07:51;25.70;;;16.30;;
42430;SDS011;71905;47.466;19.024;2024-03-02T14:10:20;23.70;;;16.00;;
42430;SDS011;71905;47.466;19.024;2024-03-02T14:12:49;26.17;;;16.65;;
42430;SDS011;71905;47.466;19.024;2024-03-02T14:15:17;26.42;;;16.42;;
42430;SDS011;71905;47.466;19.024;2024-03-02T14:17:47;23.45;;;15.85;;
42430;SDS011;71905;47.466;19.024;2024-03-02T14:20:15;23.23;;;15.85;;
42430;SDS011;71905;47.466;19.024;2024-03-02T14:22:48;27.65;;;16.10;;
42430;SDS011;71905;47.466;19.024;2024-03-02T14:25:18;26.98;;;16.90;;